Flight Track Log - Related Links

Times and Time Zones

All times are in EDT time to prevent confusion due to time zone crossing. See the N487PG flight status page for this flight to view local times or setup timezone preferences in your user account.

Time Position Orientation Groundspeed Altitude Reporting Facility
EDT Latitude Longitude Course Direction KTS MPH feet Rate Location/Type
Thu 07:49:32 PM -19.8956 -159.8023 35° Northeast  Level FlightAware Approximate
Thu 07:50:32 PM -19.8648 -159.7778 35° Northeast  Level Estimated
Thu 07:51:32 PM 35.2268 -118.9198 284° West  Level FlightAware Approximate
Thu 07:52:32 PM 35.1910 -118.9024 325° Northwest  Level FlightAware Approximate
Thu 07:52:56 PM 35.2300 -118.9361 151° Southeast 160 184 8,900  Level Los Angeles Center
Thu 07:57:56 PM 35.0492 -118.8158 155° Southeast 154 177 8,900  Level Los Angeles Center
Thu 07:58:56 PM 35.0122 -118.7944 155° Southeast 154 177 8,900  Level Los Angeles Center
Thu 07:59:56 PM 34.9750 -118.7728 147° Southeast 154 177 8,900  Level Los Angeles Center
Thu 08:00:56 PM 34.9422 -118.7464 152° Southeast 154 177 8,900  Level Los Angeles Center
Thu 08:01:56 PM 34.9053 -118.7225 156° South 149 171 8,900  Level Los Angeles Center
Thu 08:02:56 PM 34.8700 -118.7036 152° Southeast 149 171 8,900  Level Los Angeles Center
Thu 08:03:56 PM 34.8331 -118.6797 157° South 154 177 8,900  Level Los Angeles Center
Thu 08:04:56 PM 34.7958 -118.6608 149° Southeast 154 177 8,900  Level Los Angeles Center
Thu 08:05:56 PM 34.7631 -118.6372 155° Southeast 154 177 8,900  Level Los Angeles Center
Thu 08:06:56 PM 34.7258 -118.6158 148° Southeast 154 177 8,900  Level Los Angeles Center
Thu 08:07:56 PM 34.6908 -118.5894 153° Southeast 154 177 8,900  Level Los Angeles Center
Thu 08:08:56 PM 34.6517 -118.5656 155° Southeast 154 177 8,900  Level Los Angeles Center
Thu 08:09:56 PM 34.6144 -118.5442 155° Southeast 154 177 8,900  Level Los Angeles Center
Thu 08:10:56 PM 34.5775 -118.5231 154° Southeast 154 177 8,900  Level Los Angeles Center
Thu 08:11:56 PM 34.5422 -118.5019 152° Southeast 154 177 8,900  Level Los Angeles Center
Thu 08:12:56 PM 34.5053 -118.4781 154° Southeast 154 177 8,900  Level Los Angeles Center
Thu 08:13:56 PM 34.4661 -118.4544 155° Southeast 154 177 8,900  Level Los Angeles Center
Thu 08:14:56 PM 34.4289 -118.4331 155° Southeast 154 177 8,900  Level Los Angeles Center
Thu 08:15:56 PM 34.3958 -118.4147 157° South 154 177 8,900  Level Los Angeles Center
Thu 08:16:30 PM 34.3667 -118.4000 140° Southeast 148 170 8,900  Level Southern California TRACON
Thu 08:17:30 PM 34.3333 -118.3667 158° South 146 168 8,900  Level Southern California TRACON
Thu 08:18:36 PM 34.3000 -118.3500 165° South 147 169 8,900  Level Southern California TRACON
Thu 08:19:36 PM 34.2500 -118.3333 158° South 149 171 8,900  Level Southern California TRACON
Thu 08:20:37 PM 34.2167 -118.3167 140° Southeast 148 170 8,900 -50 Level Southern California TRACON
Thu 08:21:37 PM 34.1833 -118.2833 158° South 149 171 8,800 -50 Descending Southern California TRACON
Thu 08:22:37 PM 34.1500 -118.2667 151° Southeast 150 173 8,800 50 Level Southern California TRACON
Thu 08:23:37 PM 34.1000 -118.2333 158° South 149 171 8,900 50 Climbing Southern California TRACON
Thu 08:24:37 PM 34.0667 -118.2167 157° South 146 168 8,900 50 Level Southern California TRACON
Thu 08:25:37 PM 34.0333 -118.2000 180° South 144 166 9,000  Climbing Southern California TRACON
Thu 08:26:38 PM 34.0000 -118.2000 165° South 142 163 8,900  Descending Southern California TRACON
Thu 08:27:44 PM 33.9500 -118.1833 180° South 145 167 9,000  Climbing Southern California TRACON
Thu 08:28:38 PM 33.9167 -118.1833 180° South 143 165 8,900 -368 Descending Southern California TRACON
Thu 08:29:38 PM 33.8833 -118.1833 195° South 141 162 8,300 -650 Descending Southern California TRACON
Thu 08:30:38 PM 33.8333 -118.2000 180° South 137 158 7,600 -700 Descending Southern California TRACON
Thu 08:31:38 PM 33.8000 -118.2000 180° South 139 160 6,900 -750 Descending Southern California TRACON
Thu 08:32:38 PM 33.7667 -118.2000 140° Southeast 141 162 6,100 -850 Descending Southern California TRACON
Thu 08:33:38 PM 33.7333 -118.1667 157° South 152 175 5,200 -850 Descending Southern California TRACON
Thu 08:34:38 PM 33.7000 -118.1500 203° Southwest 145 167 4,400 -843 Descending Southern California TRACON
Thu 08:35:39 PM 33.6667 -118.1667 320° Northwest 140 161 3,500 -793 Descending Southern California TRACON
Thu 08:36:39 PM 33.7000 -118.2000 320° Northwest 117 135 2,800 -737 Descending Southern California TRACON
Thu 08:37:33 PM 33.7167 -118.2167 301° West 119 137 2,100 -500 Descending Southern California TRACON
Thu 08:38:39 PM 33.7333 -118.2500 320° Northwest 105 121 1,800 -238 Descending Southern California TRACON
Thu 08:39:39 PM 33.7500 -118.2667 320° Northwest 94 108 1,600 -400 Descending Southern California TRACON
Thu 08:40:39 PM 33.7833 -118.3000 320° Northwest 104 120 1,000 -350 Descending Southern California TRACON
Thu 08:41:39 PM 33.8000 -118.3167 320° Northwest 98 113 900 -100 Descending Southern California TRACON

Login

Don't have an account? Register now (free) for customized features, flight alerts, and more!